Terminal Aerodrome Forecast
Issued by NWS

Home | Current Version | Previous Version | Text Only | Print | Product List | Glossary On
Versions: 1 2 3 4 5 6 7 8 9 10 11 12 13 14 15 16 17 18
925
FTUS45 KRIW 180530
TAFRKS
TAF
KRKS 180530Z 1806/1906 VRB05KT P6SM VCFG SCT005
     FM181200 VRB05KT 5SM BR SCT005
      TEMPO 1813/1817 1SM BR
     FM181800 23006KT P6SM SCT250
     FM190100 15006KT P6SM SCT250=

USA.gov is the U.S. government's official web portal to all federal, state and local government web resources and services.